sensor_id;sensor_type;location;lat;lon;timestamp;P1;durP1;ratioP1;P2;durP2;ratioP2
38208;SDS011;24016;52.102;11.584;2023-05-10T00:02:08;5.45;;;3.40;;
38208;SDS011;24016;52.102;11.584;2023-05-10T00:04:33;5.15;;;3.47;;
38208;SDS011;24016;52.102;11.584;2023-05-10T00:06:59;5.22;;;3.70;;
38208;SDS011;24016;52.102;11.584;2023-05-10T00:09:24;6.53;;;3.42;;
38208;SDS011;24016;52.102;11.584;2023-05-10T00:11:50;5.85;;;3.80;;
38208;SDS011;24016;52.102;11.584;2023-05-10T00:14:16;4.10;;;3.00;;
38208;SDS011;24016;52.102;11.584;2023-05-10T00:16:41;4.97;;;3.08;;
38208;SDS011;24016;52.102;11.584;2023-05-10T00:19:07;4.93;;;3.38;;
38208;SDS011;24016;52.102;11.584;2023-05-10T00:21:33;5.68;;;2.95;;
38208;SDS011;24016;52.102;11.584;2023-05-10T00:23:58;4.20;;;3.22;;
38208;SDS011;24016;52.102;11.584;2023-05-10T00:26:24;4.88;;;3.45;;
38208;SDS011;24016;52.102;11.584;2023-05-10T00:28:50;5.75;;;3.40;;
38208;SDS011;24016;52.102;11.584;2023-05-10T00:31:15;4.72;;;3.30;;
38208;SDS011;24016;52.102;11.584;2023-05-10T00:33:41;4.22;;;3.30;;
38208;SDS011;24016;52.102;11.584;2023-05-10T00:36:07;6.53;;;3.42;;
38208;SDS011;24016;52.102;11.584;2023-05-10T00:38:33;6.60;;;3.53;;
38208;SDS011;24016;52.102;11.584;2023-05-10T00:40:58;5.75;;;3.90;;
38208;SDS011;24016;52.102;11.584;2023-05-10T00:43:24;4.72;;;3.50;;
38208;SDS011;24016;52.102;11.584;2023-05-10T00:45:49;5.05;;;3.40;;
38208;SDS011;24016;52.102;11.584;2023-05-10T00:48:15;4.47;;;3.33;;
38208;SDS011;24016;52.102;11.584;2023-05-10T00:50:41;4.90;;;3.40;;
38208;SDS011;24016;52.102;11.584;2023-05-10T00:53:06;7.20;;;3.47;;
38208;SDS011;24016;52.102;11.584;2023-05-10T00:55:32;4.97;;;3.83;;
38208;SDS011;24016;52.102;11.584;2023-05-10T00:57:58;7.72;;;4.07;;
38208;SDS011;24016;52.102;11.584;2023-05-10T01:00:24;5.15;;;3.90;;
38208;SDS011;24016;52.102;11.584;2023-05-10T01:02:50;4.18;;;3.50;;
38208;SDS011;24016;52.102;11.584;2023-05-10T01:05:18;4.38;;;3.40;;
38208;SDS011;24016;52.102;11.584;2023-05-10T01:07:43;6.97;;;3.58;;
38208;SDS011;24016;52.102;11.584;2023-05-10T01:10:09;4.57;;;3.47;;
38208;SDS011;24016;52.102;11.584;2023-05-10T01:12:36;8.45;;;3.90;;
38208;SDS011;24016;52.102;11.584;2023-05-10T01:15:05;5.78;;;3.63;;
38208;SDS011;24016;52.102;11.584;2023-05-10T01:17:32;4.32;;;3.40;;
38208;SDS011;24016;52.102;11.584;2023-05-10T01:19:59;5.88;;;3.58;;
38208;SDS011;24016;52.102;11.584;2023-05-10T01:22:33;5.18;;;3.80;;
38208;SDS011;24016;52.102;11.584;2023-05-10T01:25:19;5.32;;;3.58;;
38208;SDS011;24016;52.102;11.584;2023-05-10T01:28:11;6.85;;;3.63;;
38208;SDS011;24016;52.102;11.584;2023-05-10T01:36:19;5.63;;;3.55;;
38208;SDS011;24016;52.102;11.584;2023-05-10T01:44:34;5.45;;;3.83;;
38208;SDS011;24016;52.102;11.584;2023-05-10T01:47:21;3.95;;;3.38;;
38208;SDS011;24016;52.102;11.584;2023-05-10T01:49:59;8.27;;;3.63;;
38208;SDS011;24016;52.102;11.584;2023-05-10T01:52:30;5.43;;;3.80;;
38208;SDS011;24016;52.102;11.584;2023-05-10T01:55:02;8.48;;;3.90;;
38208;SDS011;24016;52.102;11.584;2023-05-10T01:57:32;4.68;;;3.50;;
38208;SDS011;24016;52.102;11.584;2023-05-10T02:00:01;5.30;;;3.80;;
38208;SDS011;24016;52.102;11.584;2023-05-10T02:02:28;4.95;;;4.07;;
38208;SDS011;24016;52.102;11.584;2023-05-10T02:04:57;4.18;;;3.50;;
38208;SDS011;24016;52.102;11.584;2023-05-10T02:07:24;6.03;;;3.88;;
38208;SDS011;24016;52.102;11.584;2023-05-10T02:09:50;6.63;;;3.67;;
38208;SDS011;24016;52.102;11.584;2023-05-10T02:12:16;7.82;;;3.80;;
38208;SDS011;24016;52.102;11.584;2023-05-10T02:14:42;5.10;;;4.00;;
38208;SDS011;24016;52.102;11.584;2023-05-10T02:17:09;8.35;;;4.32;;
38208;SDS011;24016;52.102;11.584;2023-05-10T02:19:36;8.25;;;4.35;;
38208;SDS011;24016;52.102;11.584;2023-05-10T02:22:03;6.07;;;3.55;;
38208;SDS011;24016;52.102;11.584;2023-05-10T02:24:29;8.20;;;4.20;;
38208;SDS011;24016;52.102;11.584;2023-05-10T02:26:57;5.63;;;3.90;;
38208;SDS011;24016;52.102;11.584;2023-05-10T02:29:24;4.78;;;4.10;;
38208;SDS011;24016;52.102;11.584;2023-05-10T02:31:52;5.57;;;4.22;;
38208;SDS011;24016;52.102;11.584;2023-05-10T02:34:21;5.63;;;4.07;;
38208;SDS011;24016;52.102;11.584;2023-05-10T02:36:48;6.50;;;4.38;;
38208;SDS011;24016;52.102;11.584;2023-05-10T02:39:15;5.75;;;3.72;;
38208;SDS011;24016;52.102;11.584;2023-05-10T02:41:43;6.05;;;4.45;;
38208;SDS011;24016;52.102;11.584;2023-05-10T02:44:11;5.53;;;4.28;;
38208;SDS011;24016;52.102;11.584;2023-05-10T02:46:39;6.45;;;4.00;;
38208;SDS011;24016;52.102;11.584;2023-05-10T02:49:04;5.80;;;4.25;;
38208;SDS011;24016;52.102;11.584;2023-05-10T02:51:31;8.73;;;4.22;;
38208;SDS011;24016;52.102;11.584;2023-05-10T02:54:01;6.03;;;3.75;;
38208;SDS011;24016;52.102;11.584;2023-05-10T02:56:33;7.60;;;4.40;;
38208;SDS011;24016;52.102;11.584;2023-05-10T02:59:00;5.57;;;4.05;;
38208;SDS011;24016;52.102;11.584;2023-05-10T03:01:26;8.88;;;4.32;;
38208;SDS011;24016;52.102;11.584;2023-05-10T03:03:52;5.97;;;4.50;;
38208;SDS011;24016;52.102;11.584;2023-05-10T03:06:18;5.30;;;4.00;;
38208;SDS011;24016;52.102;11.584;2023-05-10T03:08:44;5.35;;;4.07;;
38208;SDS011;24016;52.102;11.584;2023-05-10T03:11:23;7.72;;;4.07;;
38208;SDS011;24016;52.102;11.584;2023-05-10T03:19:24;6.32;;;4.03;;
38208;SDS011;24016;52.102;11.584;2023-05-10T03:22:06;11.13;;;4.63;;
38208;SDS011;24016;52.102;11.584;2023-05-10T03:24:35;5.55;;;3.90;;
38208;SDS011;24016;52.102;11.584;2023-05-10T03:27:03;5.65;;;3.95;;
38208;SDS011;24016;52.102;11.584;2023-05-10T03:29:29;5.20;;;4.00;;
38208;SDS011;24016;52.102;11.584;2023-05-10T03:32:00;4.90;;;3.88;;
38208;SDS011;24016;52.102;11.584;2023-05-10T03:34:26;5.90;;;4.00;;
38208;SDS011;24016;52.102;11.584;2023-05-10T03:36:51;6.60;;;3.90;;
38208;SDS011;24016;52.102;11.584;2023-05-10T03:39:17;4.93;;;3.78;;
38208;SDS011;24016;52.102;11.584;2023-05-10T03:41:43;6.00;;;4.05;;
38208;SDS011;24016;52.102;11.584;2023-05-10T03:44:08;6.72;;;4.07;;
38208;SDS011;24016;52.102;11.584;2023-05-10T03:46:34;6.15;;;4.00;;
38208;SDS011;24016;52.102;11.584;2023-05-10T03:48:59;7.10;;;3.90;;
38208;SDS011;24016;52.102;11.584;2023-05-10T03:51:25;5.82;;;4.00;;
38208;SDS011;24016;52.102;11.584;2023-05-10T03:53:53;5.03;;;4.10;;
38208;SDS011;24016;52.102;11.584;2023-05-10T03:56:21;5.85;;;4.10;;
38208;SDS011;24016;52.102;11.584;2023-05-10T03:58:47;6.80;;;3.83;;
38208;SDS011;24016;52.102;11.584;2023-05-10T04:01:12;6.07;;;4.00;;
38208;SDS011;24016;52.102;11.584;2023-05-10T04:03:38;7.63;;;4.13;;
38208;SDS011;24016;52.102;11.584;2023-05-10T04:06:04;7.35;;;4.95;;
38208;SDS011;24016;52.102;11.584;2023-05-10T04:08:30;5.78;;;3.95;;
38208;SDS011;24016;52.102;11.584;2023-05-10T04:11:08;5.20;;;4.07;;
38208;SDS011;24016;52.102;11.584;2023-05-10T04:13:36;4.93;;;3.97;;
38208;SDS011;24016;52.102;11.584;2023-05-10T04:16:02;5.38;;;3.97;;
38208;SDS011;24016;52.102;11.584;2023-05-10T04:18:28;9.13;;;3.95;;
38208;SDS011;24016;52.102;11.584;2023-05-10T04:20:53;5.70;;;4.38;;
38208;SDS011;24016;52.102;11.584;2023-05-10T04:23:19;5.88;;;3.83;;
38208;SDS011;24016;52.102;11.584;2023-05-10T04:25:44;6.10;;;3.90;;
38208;SDS011;24016;52.102;11.584;2023-05-10T04:28:10;4.90;;;3.90;;
38208;SDS011;24016;52.102;11.584;2023-05-10T04:30:36;6.10;;;4.05;;
38208;SDS011;24016;52.102;11.584;2023-05-10T04:33:01;10.57;;;4.50;;
38208;SDS011;24016;52.102;11.584;2023-05-10T04:35:27;6.00;;;4.40;;
38208;SDS011;24016;52.102;11.584;2023-05-10T04:37:53;5.85;;;4.05;;
38208;SDS011;24016;52.102;11.584;2023-05-10T04:40:19;7.45;;;4.40;;
38208;SDS011;24016;52.102;11.584;2023-05-10T04:42:45;5.78;;;3.88;;
38208;SDS011;24016;52.102;11.584;2023-05-10T04:45:11;8.07;;;4.30;;
38208;SDS011;24016;52.102;11.584;2023-05-10T04:47:37;6.80;;;4.00;;
38208;SDS011;24016;52.102;11.584;2023-05-10T04:50:06;5.18;;;4.05;;
38208;SDS011;24016;52.102;11.584;2023-05-10T04:52:32;9.55;;;3.80;;
38208;SDS011;24016;52.102;11.584;2023-05-10T04:54:57;5.30;;;3.92;;
38208;SDS011;24016;52.102;11.584;2023-05-10T04:57:23;5.07;;;3.50;;
38208;SDS011;24016;52.102;11.584;2023-05-10T04:59:49;4.75;;;3.75;;
38208;SDS011;24016;52.102;11.584;2023-05-10T05:02:14;6.03;;;3.90;;
38208;SDS011;24016;52.102;11.584;2023-05-10T05:04:40;7.43;;;3.70;;
38208;SDS011;24016;52.102;11.584;2023-05-10T05:07:06;5.18;;;3.67;;
38208;SDS011;24016;52.102;11.584;2023-05-10T05:09:31;4.82;;;3.65;;
38208;SDS011;24016;52.102;11.584;2023-05-10T05:11:57;6.47;;;3.72;;
38208;SDS011;24016;52.102;11.584;2023-05-10T05:14:23;4.57;;;3.50;;
38208;SDS011;24016;52.102;11.584;2023-05-10T05:16:50;4.65;;;3.67;;
38208;SDS011;24016;52.102;11.584;2023-05-10T05:19:16;8.40;;;4.20;;
38208;SDS011;24016;52.102;11.584;2023-05-10T05:21:41;6.22;;;4.18;;
38208;SDS011;24016;52.102;11.584;2023-05-10T05:24:07;6.13;;;3.80;;
38208;SDS011;24016;52.102;11.584;2023-05-10T05:26:33;6.97;;;4.00;;
38208;SDS011;24016;52.102;11.584;2023-05-10T05:28:58;7.35;;;4.38;;
38208;SDS011;24016;52.102;11.584;2023-05-10T05:31:24;5.07;;;3.70;;
38208;SDS011;24016;52.102;11.584;2023-05-10T05:33:49;6.93;;;3.67;;
38208;SDS011;24016;52.102;11.584;2023-05-10T05:36:15;4.90;;;3.75;;
38208;SDS011;24016;52.102;11.584;2023-05-10T05:38:41;5.05;;;3.75;;
38208;SDS011;24016;52.102;11.584;2023-05-10T05:41:07;4.90;;;3.38;;
38208;SDS011;24016;52.102;11.584;2023-05-10T05:43:33;4.95;;;4.10;;
38208;SDS011;24016;52.102;11.584;2023-05-10T05:45:58;5.28;;;3.45;;
38208;SDS011;24016;52.102;11.584;2023-05-10T05:48:24;6.55;;;3.50;;
38208;SDS011;24016;52.102;11.584;2023-05-10T05:50:50;6.47;;;3.63;;
38208;SDS011;24016;52.102;11.584;2023-05-10T05:53:20;4.78;;;3.13;;
38208;SDS011;24016;52.102;11.584;2023-05-10T05:55:54;4.68;;;3.45;;
38208;SDS011;24016;52.102;11.584;2023-05-10T05:58:22;10.02;;;3.63;;
38208;SDS011;24016;52.102;11.584;2023-05-10T06:00:48;5.10;;;3.50;;
38208;SDS011;24016;52.102;11.584;2023-05-10T06:03:13;6.13;;;3.38;;
38208;SDS011;24016;52.102;11.584;2023-05-10T06:05:39;6.28;;;3.45;;
38208;SDS011;24016;52.102;11.584;2023-05-10T06:08:05;6.93;;;3.55;;
38208;SDS011;24016;52.102;11.584;2023-05-10T06:10:30;6.18;;;3.63;;
38208;SDS011;24016;52.102;11.584;2023-05-10T06:12:56;8.18;;;3.92;;
38208;SDS011;24016;52.102;11.584;2023-05-10T06:15:22;6.50;;;3.75;;
38208;SDS011;24016;52.102;11.584;2023-05-10T06:17:47;7.75;;;3.88;;
38208;SDS011;24016;52.102;11.584;2023-05-10T06:20:14;7.25;;;3.60;;
38208;SDS011;24016;52.102;11.584;2023-05-10T06:22:40;7.35;;;3.40;;
38208;SDS011;24016;52.102;11.584;2023-05-10T06:25:06;8.30;;;3.90;;
38208;SDS011;24016;52.102;11.584;2023-05-10T06:27:32;4.72;;;3.63;;
38208;SDS011;24016;52.102;11.584;2023-05-10T06:29:57;7.47;;;3.72;;
38208;SDS011;24016;52.102;11.584;2023-05-10T06:32:23;5.68;;;3.72;;
38208;SDS011;24016;52.102;11.584;2023-05-10T06:34:48;6.22;;;4.00;;
38208;SDS011;24016;52.102;11.584;2023-05-10T06:37:14;7.28;;;3.90;;
38208;SDS011;24016;52.102;11.584;2023-05-10T06:39:39;4.80;;;4.00;;
38208;SDS011;24016;52.102;11.584;2023-05-10T06:42:05;4.30;;;3.60;;
38208;SDS011;24016;52.102;11.584;2023-05-10T06:44:31;10.35;;;3.95;;
38208;SDS011;24016;52.102;11.584;2023-05-10T06:46:56;6.15;;;3.80;;
38208;SDS011;24016;52.102;11.584;2023-05-10T06:49:22;7.35;;;3.60;;
38208;SDS011;24016;52.102;11.584;2023-05-10T06:51:47;8.02;;;4.13;;
38208;SDS011;24016;52.102;11.584;2023-05-10T06:54:13;11.02;;;4.15;;
38208;SDS011;24016;52.102;11.584;2023-05-10T06:56:39;8.55;;;4.22;;
38208;SDS011;24016;52.102;11.584;2023-05-10T06:59:05;7.20;;;3.90;;
38208;SDS011;24016;52.102;11.584;2023-05-10T07:01:30;6.75;;;4.10;;
38208;SDS011;24016;52.102;11.584;2023-05-10T07:03:56;5.72;;;3.88;;
38208;SDS011;24016;52.102;11.584;2023-05-10T07:06:21;7.72;;;3.85;;
38208;SDS011;24016;52.102;11.584;2023-05-10T07:08:47;7.93;;;3.72;;
38208;SDS011;24016;52.102;11.584;2023-05-10T07:11:12;4.53;;;4.00;;
38208;SDS011;24016;52.102;11.584;2023-05-10T07:13:38;5.53;;;3.90;;
38208;SDS011;24016;52.102;11.584;2023-05-10T07:16:06;6.60;;;3.42;;
38208;SDS011;24016;52.102;11.584;2023-05-10T07:18:32;6.53;;;3.70;;
38208;SDS011;24016;52.102;11.584;2023-05-10T07:20:58;9.60;;;3.78;;
38208;SDS011;24016;52.102;11.584;2023-05-10T07:23:24;6.97;;;3.35;;
38208;SDS011;24016;52.102;11.584;2023-05-10T07:25:49;7.15;;;3.83;;
38208;SDS011;24016;52.102;11.584;2023-05-10T07:28:19;5.78;;;3.92;;
38208;SDS011;24016;52.102;11.584;2023-05-10T07:30:44;6.53;;;4.38;;
38208;SDS011;24016;52.102;11.584;2023-05-10T07:33:13;6.65;;;3.50;;
38208;SDS011;24016;52.102;11.584;2023-05-10T07:35:39;5.85;;;3.45;;
38208;SDS011;24016;52.102;11.584;2023-05-10T07:38:05;6.80;;;4.13;;
38208;SDS011;24016;52.102;11.584;2023-05-10T07:40:30;4.88;;;3.80;;
38208;SDS011;24016;52.102;11.584;2023-05-10T07:42:57;7.22;;;3.80;;
38208;SDS011;24016;52.102;11.584;2023-05-10T07:45:23;9.27;;;3.90;;
38208;SDS011;24016;52.102;11.584;2023-05-10T07:47:48;6.30;;;4.43;;
38208;SDS011;24016;52.102;11.584;2023-05-10T07:50:14;6.18;;;4.15;;
38208;SDS011;24016;52.102;11.584;2023-05-10T07:52:40;8.75;;;4.28;;
38208;SDS011;24016;52.102;11.584;2023-05-10T07:55:06;5.18;;;4.03;;
38208;SDS011;24016;52.102;11.584;2023-05-10T07:57:32;5.90;;;4.85;;
38208;SDS011;24016;52.102;11.584;2023-05-10T07:59:58;6.05;;;4.15;;
38208;SDS011;24016;52.102;11.584;2023-05-10T08:02:24;6.28;;;3.78;;
38208;SDS011;24016;52.102;11.584;2023-05-10T08:04:50;8.40;;;3.80;;
38208;SDS011;24016;52.102;11.584;2023-05-10T08:07:16;8.55;;;3.90;;
38208;SDS011;24016;52.102;11.584;2023-05-10T08:09:41;6.95;;;4.45;;
38208;SDS011;24016;52.102;11.584;2023-05-10T08:12:07;5.68;;;4.38;;
38208;SDS011;24016;52.102;11.584;2023-05-10T08:14:33;4.85;;;3.95;;
38208;SDS011;24016;52.102;11.584;2023-05-10T08:16:58;5.30;;;4.25;;
38208;SDS011;24016;52.102;11.584;2023-05-10T08:19:24;6.88;;;4.30;;
38208;SDS011;24016;52.102;11.584;2023-05-10T08:21:49;7.38;;;4.32;;
38208;SDS011;24016;52.102;11.584;2023-05-10T08:24:15;7.05;;;4.15;;
38208;SDS011;24016;52.102;11.584;2023-05-10T08:26:41;5.90;;;4.25;;
38208;SDS011;24016;52.102;11.584;2023-05-10T08:29:07;7.88;;;4.35;;
38208;SDS011;24016;52.102;11.584;2023-05-10T08:31:32;6.53;;;4.30;;
38208;SDS011;24016;52.102;11.584;2023-05-10T08:33:58;6.85;;;4.40;;
38208;SDS011;24016;52.102;11.584;2023-05-10T08:36:23;9.23;;;4.60;;
38208;SDS011;24016;52.102;11.584;2023-05-10T08:38:52;7.78;;;4.90;;
38208;SDS011;24016;52.102;11.584;2023-05-10T08:41:22;5.35;;;4.22;;
38208;SDS011;24016;52.102;11.584;2023-05-10T08:43:51;7.28;;;4.60;;
38208;SDS011;24016;52.102;11.584;2023-05-10T08:46:18;5.90;;;4.38;;
38208;SDS011;24016;52.102;11.584;2023-05-10T08:48:45;7.50;;;4.85;;
38208;SDS011;24016;52.102;11.584;2023-05-10T08:51:17;7.78;;;4.20;;
38208;SDS011;24016;52.102;11.584;2023-05-10T08:53:44;5.95;;;4.50;;
38208;SDS011;24016;52.102;11.584;2023-05-10T08:56:11;8.57;;;4.75;;
38208;SDS011;24016;52.102;11.584;2023-05-10T08:58:37;6.43;;;4.53;;
38208;SDS011;24016;52.102;11.584;2023-05-10T09:01:03;9.85;;;4.95;;
38208;SDS011;24016;52.102;11.584;2023-05-10T09:03:30;8.23;;;4.90;;
38208;SDS011;24016;52.102;11.584;2023-05-10T09:05:56;9.93;;;4.80;;
38208;SDS011;24016;52.102;11.584;2023-05-10T09:08:22;8.15;;;4.88;;
38208;SDS011;24016;52.102;11.584;2023-05-10T09:10:52;6.30;;;4.43;;
38208;SDS011;24016;52.102;11.584;2023-05-10T09:13:18;9.20;;;5.30;;
38208;SDS011;24016;52.102;11.584;2023-05-10T09:15:45;9.68;;;4.82;;
38208;SDS011;24016;52.102;11.584;2023-05-10T09:18:12;8.13;;;5.00;;
38208;SDS011;24016;52.102;11.584;2023-05-10T09:20:37;8.20;;;4.65;;
38208;SDS011;24016;52.102;11.584;2023-05-10T09:23:03;8.25;;;4.85;;
38208;SDS011;24016;52.102;11.584;2023-05-10T09:25:28;9.13;;;5.05;;
38208;SDS011;24016;52.102;11.584;2023-05-10T09:27:54;6.30;;;4.78;;
38208;SDS011;24016;52.102;11.584;2023-05-10T09:30:29;6.15;;;4.30;;
38208;SDS011;24016;52.102;11.584;2023-05-10T09:32:56;8.52;;;4.93;;
38208;SDS011;24016;52.102;11.584;2023-05-10T09:35:23;7.53;;;4.55;;
38208;SDS011;24016;52.102;11.584;2023-05-10T09:37:51;10.00;;;5.07;;
38208;SDS011;24016;52.102;11.584;2023-05-10T09:40:21;7.45;;;4.55;;
38208;SDS011;24016;52.102;11.584;2023-05-10T09:42:52;7.63;;;4.60;;
38208;SDS011;24016;52.102;11.584;2023-05-10T09:45:21;8.02;;;5.13;;
38208;SDS011;24016;52.102;11.584;2023-05-10T09:47:47;8.35;;;4.78;;
38208;SDS011;24016;52.102;11.584;2023-05-10T09:50:12;5.45;;;4.32;;
38208;SDS011;24016;52.102;11.584;2023-05-10T09:52:57;7.30;;;4.93;;
38208;SDS011;24016;52.102;11.584;2023-05-10T09:55:25;6.40;;;4.72;;
38208;SDS011;24016;52.102;11.584;2023-05-10T09:58:03;6.50;;;4.82;;
38208;SDS011;24016;52.102;11.584;2023-05-10T10:00:35;6.93;;;4.82;;
38208;SDS011;24016;52.102;11.584;2023-05-10T10:03:01;10.32;;;5.03;;
38208;SDS011;24016;52.102;11.584;2023-05-10T10:05:31;7.47;;;4.97;;
38208;SDS011;24016;52.102;11.584;2023-05-10T10:07:58;5.72;;;5.10;;
38208;SDS011;24016;52.102;11.584;2023-05-10T10:10:25;8.43;;;5.63;;
38208;SDS011;24016;52.102;11.584;2023-05-10T10:12:51;8.10;;;5.15;;
38208;SDS011;24016;52.102;11.584;2023-05-10T10:15:17;9.73;;;5.65;;
38208;SDS011;24016;52.102;11.584;2023-05-10T10:17:43;8.90;;;6.53;;
38208;SDS011;24016;52.102;11.584;2023-05-10T10:20:10;7.95;;;4.97;;
38208;SDS011;24016;52.102;11.584;2023-05-10T10:22:36;9.40;;;5.53;;
38208;SDS011;24016;52.102;11.584;2023-05-10T10:25:02;7.68;;;5.70;;
38208;SDS011;24016;52.102;11.584;2023-05-10T10:32:59;10.80;;;6.70;;
38208;SDS011;24016;52.102;11.584;2023-05-10T10:35:40;8.90;;;5.93;;
38208;SDS011;24016;52.102;11.584;2023-05-10T10:38:08;10.82;;;6.07;;
38208;SDS011;24016;52.102;11.584;2023-05-10T10:40:34;9.93;;;7.13;;
38208;SDS011;24016;52.102;11.584;2023-05-10T10:43:42;8.48;;;6.75;;
38208;SDS011;24016;52.102;11.584;2023-05-10T10:48:35;7.40;;;6.57;;
38208;SDS011;24016;52.102;11.584;2023-05-10T10:51:00;10.15;;;6.88;;
38208;SDS011;24016;52.102;11.584;2023-05-10T10:53:26;10.43;;;6.57;;
38208;SDS011;24016;52.102;11.584;2023-05-10T10:56:02;11.50;;;7.00;;
38208;SDS011;24016;52.102;11.584;2023-05-10T10:58:32;7.93;;;7.05;;
38208;SDS011;24016;52.102;11.584;2023-05-10T11:01:11;11.68;;;7.28;;
38208;SDS011;24016;52.102;11.584;2023-05-10T11:06:30;10.13;;;7.88;;
38208;SDS011;24016;52.102;11.584;2023-05-10T11:08:56;9.98;;;8.02;;
38208;SDS011;24016;52.102;11.584;2023-05-10T11:11:22;9.15;;;7.55;;
38208;SDS011;24016;52.102;11.584;2023-05-10T11:13:48;8.73;;;7.07;;
38208;SDS011;24016;52.102;11.584;2023-05-10T11:16:18;10.93;;;7.25;;
38208;SDS011;24016;52.102;11.584;2023-05-10T11:18:52;11.23;;;8.15;;
38208;SDS011;24016;52.102;11.584;2023-05-10T11:21:32;9.88;;;8.38;;
38208;SDS011;24016;52.102;11.584;2023-05-10T11:23:59;12.32;;;8.77;;
38208;SDS011;24016;52.102;11.584;2023-05-10T11:26:30;9.70;;;8.70;;
38208;SDS011;24016;52.102;11.584;2023-05-10T11:28:56;11.68;;;8.45;;
38208;SDS011;24016;52.102;11.584;2023-05-10T11:31:23;10.80;;;9.25;;
38208;SDS011;24016;52.102;11.584;2023-05-10T11:33:52;13.77;;;9.23;;
38208;SDS011;24016;52.102;11.584;2023-05-10T11:36:20;11.57;;;8.88;;
38208;SDS011;24016;52.102;11.584;2023-05-10T11:38:48;10.88;;;8.85;;
38208;SDS011;24016;52.102;11.584;2023-05-10T11:41:14;11.45;;;9.30;;
38208;SDS011;24016;52.102;11.584;2023-05-10T11:43:42;14.70;;;9.73;;
38208;SDS011;24016;52.102;11.584;2023-05-10T11:46:08;10.18;;;9.13;;
38208;SDS011;24016;52.102;11.584;2023-05-10T11:48:36;12.15;;;9.80;;
38208;SDS011;24016;52.102;11.584;2023-05-10T11:51:03;11.80;;;9.77;;
38208;SDS011;24016;52.102;11.584;2023-05-10T11:53:30;10.60;;;9.48;;
38208;SDS011;24016;52.102;11.584;2023-05-10T11:56:03;12.18;;;9.68;;
38208;SDS011;24016;52.102;11.584;2023-05-10T11:58:30;11.27;;;9.52;;
38208;SDS011;24016;52.102;11.584;2023-05-10T12:00:57;11.30;;;8.90;;
38208;SDS011;24016;52.102;11.584;2023-05-10T12:03:27;10.75;;;9.57;;
38208;SDS011;24016;52.102;11.584;2023-05-10T12:05:53;11.43;;;10.30;;
38208;SDS011;24016;52.102;11.584;2023-05-10T12:08:20;15.48;;;10.68;;
38208;SDS011;24016;52.102;11.584;2023-05-10T12:10:48;11.73;;;10.00;;
38208;SDS011;24016;52.102;11.584;2023-05-10T12:13:14;13.65;;;10.20;;
38208;SDS011;24016;52.102;11.584;2023-05-10T12:15:40;12.10;;;10.90;;
38208;SDS011;24016;52.102;11.584;2023-05-10T12:18:08;11.02;;;9.93;;
38208;SDS011;24016;52.102;11.584;2023-05-10T12:20:35;11.52;;;10.15;;
38208;SDS011;24016;52.102;11.584;2023-05-10T12:23:01;9.82;;;8.90;;
38208;SDS011;24016;52.102;11.584;2023-05-10T12:25:32;10.40;;;9.40;;
38208;SDS011;24016;52.102;11.584;2023-05-10T12:27:59;10.87;;;9.37;;
38208;SDS011;24016;52.102;11.584;2023-05-10T12:30:28;10.43;;;9.43;;
38208;SDS011;24016;52.102;11.584;2023-05-10T12:32:59;11.23;;;9.15;;
38208;SDS011;24016;52.102;11.584;2023-05-10T12:35:26;12.23;;;10.10;;
38208;SDS011;24016;52.102;11.584;2023-05-10T12:37:54;11.60;;;10.50;;
38208;SDS011;24016;52.102;11.584;2023-05-10T12:40:20;12.95;;;11.73;;
38208;SDS011;24016;52.102;11.584;2023-05-10T12:42:45;11.82;;;10.70;;
38208;SDS011;24016;52.102;11.584;2023-05-10T12:45:11;12.45;;;10.23;;
38208;SDS011;24016;52.102;11.584;2023-05-10T12:47:37;10.93;;;9.80;;
38208;SDS011;24016;52.102;11.584;2023-05-10T12:50:03;5.55;;;5.03;;
38208;SDS011;24016;52.102;11.584;2023-05-10T12:52:30;4.78;;;3.20;;
38208;SDS011;24016;52.102;11.584;2023-05-10T12:54:57;4.22;;;3.83;;
38208;SDS011;24016;52.102;11.584;2023-05-10T12:57:24;3.75;;;3.20;;
38208;SDS011;24016;52.102;11.584;2023-05-10T12:59:54;4.55;;;3.50;;
38208;SDS011;24016;52.102;11.584;2023-05-10T13:02:20;4.50;;;3.97;;
38208;SDS011;24016;52.102;11.584;2023-05-10T13:04:47;4.75;;;4.25;;
38208;SDS011;24016;52.102;11.584;2023-05-10T13:07:16;5.38;;;4.88;;
38208;SDS011;24016;52.102;11.584;2023-05-10T13:09:41;2.70;;;2.33;;
38208;SDS011;24016;52.102;11.584;2023-05-10T13:12:08;2.47;;;2.00;;
38208;SDS011;24016;52.102;11.584;2023-05-10T13:14:33;1.20;;;1.10;;
38208;SDS011;24016;52.102;11.584;2023-05-10T13:16:59;1.17;;;1.08;;
38208;SDS011;24016;52.102;11.584;2023-05-10T13:19:25;1.40;;;1.20;;
38208;SDS011;24016;52.102;11.584;2023-05-10T13:21:51;2.17;;;1.40;;
38208;SDS011;24016;52.102;11.584;2023-05-10T13:24:16;2.17;;;1.75;;
38208;SDS011;24016;52.102;11.584;2023-05-10T13:26:42;1.48;;;1.33;;
38208;SDS011;24016;52.102;11.584;2023-05-10T13:29:08;1.73;;;1.30;;
38208;SDS011;24016;52.102;11.584;2023-05-10T13:31:34;1.95;;;1.00;;
38208;SDS011;24016;52.102;11.584;2023-05-10T13:34:00;0.90;;;0.90;;
38208;SDS011;24016;52.102;11.584;2023-05-10T13:36:26;1.27;;;1.10;;
38208;SDS011;24016;52.102;11.584;2023-05-10T13:38:54;2.33;;;1.27;;
38208;SDS011;24016;52.102;11.584;2023-05-10T13:41:20;1.80;;;1.58;;
38208;SDS011;24016;52.102;11.584;2023-05-10T13:43:45;1.83;;;1.52;;
38208;SDS011;24016;52.102;11.584;2023-05-10T13:46:13;3.38;;;1.75;;
38208;SDS011;24016;52.102;11.584;2023-05-10T13:48:39;3.42;;;2.20;;
38208;SDS011;24016;52.102;11.584;2023-05-10T13:51:04;2.92;;;2.40;;
38208;SDS011;24016;52.102;11.584;2023-05-10T13:53:30;3.20;;;2.65;;
38208;SDS011;24016;52.102;11.584;2023-05-10T13:56:02;3.20;;;2.75;;
38208;SDS011;24016;52.102;11.584;2023-05-10T13:58:28;3.45;;;2.92;;
38208;SDS011;24016;52.102;11.584;2023-05-10T14:00:53;4.07;;;3.45;;
38208;SDS011;24016;52.102;11.584;2023-05-10T14:03:19;3.58;;;3.00;;
38208;SDS011;24016;52.102;11.584;2023-05-10T14:05:44;4.10;;;3.40;;
38208;SDS011;24016;52.102;11.584;2023-05-10T14:08:10;4.50;;;3.72;;
38208;SDS011;24016;52.102;11.584;2023-05-10T14:10:38;4.30;;;3.90;;
38208;SDS011;24016;52.102;11.584;2023-05-10T14:13:04;5.78;;;3.90;;
38208;SDS011;24016;52.102;11.584;2023-05-10T14:15:30;4.47;;;4.07;;
38208;SDS011;24016;52.102;11.584;2023-05-10T14:17:55;5.78;;;4.10;;
38208;SDS011;24016;52.102;11.584;2023-05-10T14:20:21;4.70;;;4.20;;
38208;SDS011;24016;52.102;11.584;2023-05-10T14:22:46;5.22;;;4.72;;
38208;SDS011;24016;52.102;11.584;2023-05-10T14:25:12;5.50;;;5.00;;
38208;SDS011;24016;52.102;11.584;2023-05-10T14:27:39;5.68;;;4.50;;
38208;SDS011;24016;52.102;11.584;2023-05-10T14:30:07;6.32;;;5.72;;
38208;SDS011;24016;52.102;11.584;2023-05-10T14:32:33;6.13;;;5.47;;
38208;SDS011;24016;52.102;11.584;2023-05-10T14:35:01;6.13;;;5.28;;
38208;SDS011;24016;52.102;11.584;2023-05-10T14:37:27;6.07;;;5.50;;
38208;SDS011;24016;52.102;11.584;2023-05-10T14:39:53;5.80;;;5.20;;
38208;SDS011;24016;52.102;11.584;2023-05-10T14:42:19;5.85;;;5.35;;
38208;SDS011;24016;52.102;11.584;2023-05-10T14:44:44;5.97;;;5.47;;
38208;SDS011;24016;52.102;11.584;2023-05-10T14:47:10;6.20;;;5.60;;
38208;SDS011;24016;52.102;11.584;2023-05-10T14:49:35;5.35;;;4.85;;
38208;SDS011;24016;52.102;11.584;2023-05-10T14:52:01;5.97;;;5.38;;
38208;SDS011;24016;52.102;11.584;2023-05-10T14:54:28;6.30;;;5.70;;
38208;SDS011;24016;52.102;11.584;2023-05-10T14:56:53;5.97;;;5.38;;
38208;SDS011;24016;52.102;11.584;2023-05-10T14:59:20;5.88;;;5.38;;
38208;SDS011;24016;52.102;11.584;2023-05-10T15:01:45;6.13;;;5.63;;